createdAt,value
2022-08-19T00:01:38.897Z,101178.84
2022-08-19T00:04:07.942Z,101176.56
2022-08-19T00:06:35.146Z,101177.81
2022-08-19T00:09:05.723Z,101173.34
2022-08-19T00:11:32.190Z,101172.34
2022-08-19T00:13:58.587Z,101178.84
2022-08-19T00:16:26.753Z,101177.81
2022-08-19T00:18:54.627Z,101182.47
2022-08-19T00:21:21.142Z,101174.41
2022-08-19T00:23:47.891Z,101186.22
2022-08-19T00:26:14.861Z,101189.19
2022-08-19T00:28:41.452Z,101182.84
2022-08-19T00:31:08.981Z,101178.19
2022-08-19T00:33:35.945Z,101179.91
2022-08-19T00:36:05.474Z,101184.53
2022-08-19T00:38:37.289Z,101184.72
2022-08-19T00:41:05.941Z,101180.25
2022-08-19T00:43:41.710Z,101176.47
2022-08-19T00:46:08.319Z,101180.25
2022-08-19T00:48:35.099Z,101177.72
2022-08-19T00:51:02.204Z,101180.25
2022-08-19T00:53:29.603Z,101179.41
2022-08-19T00:55:57.810Z,101177.72
2022-08-19T00:58:27.184Z,101176.88
2022-08-19T01:00:54.026Z,101179.41
2022-08-19T01:03:21.149Z,101183.22
2022-08-19T01:05:48.575Z,101191.63
2022-08-19T01:08:16.211Z,101183.38
2022-08-19T01:10:50.874Z,101190.78
2022-08-19T01:13:19.795Z,101188.03
2022-08-19T01:15:57.327Z,101193.72
2022-08-19T01:18:24.531Z,101197.09
2022-08-19T01:20:51.897Z,101197.19
2022-08-19T01:23:19.305Z,101196.34
2022-08-19T01:25:53.191Z,101191.91
2022-08-19T01:28:34.327Z,101189.19
2022-08-19T01:31:12.438Z,101185.59
2022-08-19T01:33:55.467Z,101184.34
2022-08-19T01:36:28.664Z,101184.53
2022-08-19T01:38:55.123Z,101182.94
2022-08-19T01:41:24.418Z,101188.81
2022-08-19T01:44:13.731Z,101181.22
2022-08-19T01:46:39.675Z,101187.53
2022-08-19T01:49:09.124Z,101189.44
2022-08-19T01:51:40.016Z,101190.28
2022-08-19T01:54:07.628Z,101194.56
2022-08-19T01:56:34.030Z,101199.03
2022-08-19T01:59:10.083Z,101200.25
2022-08-19T02:01:39.047Z,101197.88
2022-08-19T02:04:06.691Z,101206.97
2022-08-19T02:06:34.046Z,101206.97
2022-08-19T02:09:00.702Z,101204.22
2022-08-19T02:11:34.395Z,101203.16
2022-08-19T02:14:07.742Z,101206.09
2022-08-19T02:16:34.532Z,101205.91
2022-08-19T02:19:03.906Z,101217.56
2022-08-19T02:21:30.934Z,101213.66
2022-08-19T02:23:57.392Z,101206.28
2022-08-19T02:26:24.436Z,101201.66
2022-08-19T02:28:50.801Z,101205.25
2022-08-19T02:31:18.534Z,101203.53
2022-08-19T02:33:45.548Z,101198.94
2022-08-19T02:36:12.643Z,101204.41
2022-08-19T02:38:39.574Z,101208.66
2022-08-19T02:41:08.128Z,101211.59
2022-08-19T02:43:37.940Z,101215.56
2022-08-19T02:46:21.690Z,101213.03
2022-08-19T02:48:49.682Z,101217.81
2022-08-19T02:51:22.590Z,101222.09
2022-08-19T02:53:48.978Z,101222.09
2022-08-19T02:56:15.956Z,101227.22
2022-08-19T02:58:43.956Z,101216.78
2022-08-19T03:01:11.298Z,101222.47
2022-08-19T03:03:38.239Z,101214.41
2022-08-19T03:06:09.227Z,101206.84
2022-08-19T03:08:36.073Z,101209.41
2022-08-19T03:11:02.720Z,101209.41
2022-08-19T03:13:29.229Z,101215.28
2022-08-19T03:15:55.739Z,101216.97
2022-08-19T03:18:23.274Z,101220.94
2022-08-19T03:20:50.604Z,101213.09
2022-08-19T03:23:17.759Z,101215.19
2022-08-19T03:25:46.341Z,101217.34
2022-08-19T03:28:13.752Z,101227.47
2022-08-19T03:30:41.805Z,101222.38
2022-08-19T03:33:10.580Z,101227.19
2022-08-19T03:35:45.998Z,101225.97
2022-08-19T03:38:12.354Z,101225.69
2022-08-19T03:40:38.727Z,101236.44
2022-08-19T03:43:05.952Z,101228.03
2022-08-19T03:45:32.308Z,101227.00
2022-08-19T03:47:58.695Z,101218.09
2022-08-19T03:50:25.311Z,101218.09
2022-08-19T03:52:52.586Z,101210.34
2022-08-19T03:55:19.751Z,101214.50
2022-08-19T03:57:46.776Z,101215.34
2022-08-19T04:00:14.187Z,101220.19
2022-08-19T04:02:41.611Z,101219.31
2022-08-19T04:05:09.153Z,101216.78
2022-08-19T04:07:35.613Z,101225.69
2022-08-19T04:10:02.024Z,101223.09
2022-08-19T04:12:29.073Z,101223.94
2022-08-19T04:14:55.460Z,101220.38
2022-08-19T04:17:23.247Z,101218.00
2022-08-19T04:19:49.671Z,101208.25
2022-08-19T04:22:16.427Z,101206.38
2022-08-19T04:24:42.836Z,101203.22
2022-08-19T04:27:09.225Z,101204.47
2022-08-19T04:29:35.703Z,101196.25
2022-08-19T04:32:08.573Z,101203.13
2022-08-19T04:34:35.331Z,101201.25
2022-08-19T04:37:01.714Z,101195.56
2022-08-19T04:39:48.235Z,101192.81
2022-08-19T04:42:34.390Z,101192.16
2022-08-19T04:45:00.823Z,101189.63
2022-08-19T04:47:48.091Z,101189.63
2022-08-19T04:50:14.442Z,101203.13
2022-08-19T04:52:43.613Z,101200.38
2022-08-19T04:55:11.262Z,101201.63
2022-08-19T04:57:41.005Z,101204.16
2022-08-19T05:00:08.707Z,101197.63
2022-08-19T05:02:35.196Z,101207.13
2022-08-19T05:05:04.519Z,101211.75
2022-08-19T05:07:31.768Z,101209.50
2022-08-19T05:09:59.186Z,101212.50
2022-08-19T05:12:28.769Z,101217.16
2022-08-19T05:14:57.614Z,101221.94
2022-08-19T05:17:29.009Z,101219.69
2022-08-19T05:20:15.916Z,101229.81
2022-08-19T05:22:44.854Z,101224.53
2022-08-19T05:25:14.206Z,101222.63
2022-08-19T05:27:41.833Z,101227.25
2022-08-19T05:30:08.819Z,101230.84
2022-08-19T05:32:35.416Z,101230.50
2022-08-19T05:35:02.036Z,101242.63
2022-08-19T05:37:28.618Z,101251.00
2022-08-19T05:39:55.704Z,101247.63
2022-08-19T05:42:23.675Z,101248.00
2022-08-19T05:44:50.543Z,101239.56
2022-08-19T05:47:17.495Z,101238.34
2022-08-19T05:49:44.780Z,101240.72
2022-08-19T05:52:12.352Z,101243.09
2022-08-19T05:54:41.266Z,101250.28
2022-08-19T05:57:07.995Z,101241.00
2022-08-19T05:59:39.187Z,101238.94
2022-08-19T06:02:06.311Z,101237.25
2022-08-19T06:04:32.983Z,101246.31
2022-08-19T06:07:12.242Z,101240.81
2022-08-19T06:09:49.097Z,101243.75
2022-08-19T06:12:29.711Z,101240.16
2022-08-19T06:15:01.251Z,101243.09
2022-08-19T06:17:28.304Z,101244.78
2022-08-19T06:19:54.721Z,101238.44
2022-08-19T06:22:21.155Z,101252.16
2022-08-19T06:24:47.640Z,101251.13
2022-08-19T06:27:14.204Z,101255.75
2022-08-19T06:29:40.559Z,101249.44
2022-08-19T06:32:07.061Z,101249.22
2022-08-19T06:34:35.044Z,101246.47
2022-08-19T06:37:02.224Z,101252.81
2022-08-19T06:39:30.086Z,101258.97
2022-08-19T06:41:58.951Z,101260.19
2022-08-19T06:44:35.225Z,101259.19
2022-08-19T06:47:09.436Z,101254.91
2022-08-19T06:49:40.994Z,101255.38
2022-08-19T06:52:08.570Z,101248.59
2022-08-19T06:54:37.646Z,101255.75
2022-08-19T06:57:15.934Z,101249.22
2022-08-19T06:59:42.797Z,101258.31
2022-08-19T07:02:09.555Z,101241.00
2022-08-19T07:04:36.691Z,101255.56
2022-08-19T07:07:19.968Z,101255.56
2022-08-19T07:09:57.097Z,101251.13
2022-08-19T07:12:27.025Z,101257.44
2022-08-19T07:14:54.592Z,101254.72
2022-08-19T07:17:21.119Z,101258.13
2022-08-19T07:19:48.185Z,101257.28
2022-08-19T07:22:15.875Z,101270.16
2022-08-19T07:24:51.457Z,101272.91
2022-08-19T07:27:24.687Z,101271.84
2022-08-19T07:29:56.192Z,101272.50
2022-08-19T07:32:24.485Z,101269.75
2022-08-19T07:34:51.959Z,101271.84
2022-08-19T07:37:20.944Z,101269.75
2022-08-19T07:39:47.687Z,101271.66
2022-08-19T07:42:14.714Z,101275.66
2022-08-19T07:44:42.342Z,101278.38
2022-08-19T07:47:50.060Z,101282.81
2022-08-19T07:50:05.676Z,101288.78
2022-08-19T07:52:35.113Z,101292.59
2022-08-19T07:55:05.721Z,101286.63
2022-08-19T07:57:32.192Z,101290.00
2022-08-19T08:00:01.936Z,101281.59
2022-08-19T08:02:42.398Z,101299.09
2022-08-19T08:05:27.992Z,101293.13
2022-08-19T08:08:13.079Z,101294.66
2022-08-19T08:10:39.515Z,101299.94
2022-08-19T08:13:10.078Z,101298.06
2022-08-19T08:15:42.756Z,101303.56
2022-08-19T08:18:10.112Z,101302.31
2022-08-19T08:20:36.499Z,101302.31
2022-08-19T08:23:22.015Z,101311.59
2022-08-19T08:25:49.814Z,101313.28
2022-08-19T08:28:17.561Z,101316.72
2022-08-19T08:30:45.327Z,101310.38
2022-08-19T08:33:12.056Z,101315.00
2022-08-19T08:35:38.534Z,101318.78
2022-08-19T08:38:05.255Z,101318.13
2022-08-19T08:40:38.815Z,101321.72
2022-08-19T08:43:11.153Z,101312.44
2022-08-19T08:45:42.714Z,101322.41
2022-08-19T08:48:22.386Z,101319.44
2022-08-19T08:50:53.711Z,101316.03
2022-08-19T08:53:29.139Z,101320.50
2022-08-19T08:55:58.738Z,101327.69
2022-08-19T08:58:30.178Z,101313.28
2022-08-19T09:00:58.283Z,101320.66
2022-08-19T09:03:27.519Z,101311.59
2022-08-19T09:06:03.744Z,101315.00
2022-08-19T09:08:41.308Z,101315.84
2022-08-19T09:11:42.844Z,101318.78
2022-08-19T09:14:07.864Z,101310.38
2022-08-19T09:16:35.275Z,101310.38
2022-08-19T09:19:06.539Z,101312.25
2022-08-19T09:21:34.352Z,101304.03
2022-08-19T09:24:03.292Z,101312.06
2022-08-19T09:26:47.415Z,101318.41
2022-08-19T09:29:17.736Z,101320.50
2022-08-19T09:31:44.385Z,101313.75
2022-08-19T09:34:20.970Z,101314.81
2022-08-19T09:36:50.412Z,101310.38
2022-08-19T09:39:17.748Z,101315.00
2022-08-19T09:41:47.669Z,101323.53
2022-08-19T09:44:15.766Z,101312.75
2022-08-19T09:46:42.215Z,101312.53
2022-08-19T09:49:08.586Z,101300.72
2022-08-19T09:51:35.194Z,101320.78
2022-08-19T09:54:04.809Z,101318.72
2022-08-19T09:56:31.965Z,101334.34
2022-08-19T09:58:59.381Z,101340.66
2022-08-19T10:01:26.665Z,101332.44
2022-08-19T10:03:54.864Z,101335.34
2022-08-19T10:06:46.159Z,101341.72
2022-08-19T10:09:11.819Z,101337.44
2022-08-19T10:11:46.993Z,101343.56
2022-08-19T10:14:22.961Z,101344.47
2022-08-19T10:16:50.342Z,101341.72
2022-08-19T10:19:16.848Z,101329.69
2022-08-19T10:21:52.179Z,101339.34
2022-08-19T10:24:21.022Z,101334.69
2022-08-19T10:26:49.115Z,101324.56
2022-08-19T10:29:32.875Z,101329.00
2022-08-19T10:32:04.170Z,101322.50
2022-08-19T10:34:31.598Z,101331.59
2022-08-19T10:37:01.112Z,101330.75
2022-08-19T10:39:32.932Z,101326.25
2022-08-19T10:42:07.796Z,101341.03
2022-08-19T10:44:36.288Z,101343.78
2022-08-19T10:47:03.898Z,101332.81
2022-08-19T10:50:09.071Z,101328.00
2022-08-19T10:52:39.111Z,101326.94
2022-08-19T10:55:25.367Z,101333.28
2022-08-19T10:58:03.078Z,101322.66
2022-08-19T11:00:31.894Z,101326.25
2022-08-19T11:02:58.435Z,101323.53
2022-08-19T11:05:24.832Z,101321.47
2022-08-19T11:07:52.753Z,101328.50
2022-08-19T11:10:21.758Z,101323.88
2022-08-19T11:12:49.035Z,101329.50
2022-08-19T11:15:15.452Z,101328.50
2022-08-19T11:17:42.473Z,101325.75
2022-08-19T11:20:09.853Z,101317.66
2022-08-19T11:22:41.582Z,101317.53
2022-08-19T11:25:09.288Z,101319.41
2022-08-19T11:27:38.343Z,101326.59
2022-08-19T11:30:05.076Z,101331.25
2022-08-19T11:32:35.326Z,101320.75
2022-08-19T11:35:01.960Z,101322.81
2022-08-19T11:37:28.382Z,101317.31
2022-08-19T11:39:54.950Z,101309.44
2022-08-19T11:42:40.002Z,101312.03
2022-08-19T11:45:06.867Z,101313.72
2022-08-19T11:47:33.978Z,101312.88
2022-08-19T11:50:00.523Z,101311.00
2022-08-19T11:52:27.584Z,101319.41
2022-08-19T11:54:54.028Z,101310.16
2022-08-19T11:57:20.808Z,101313.53
2022-08-19T11:59:57.044Z,101319.69
2022-08-19T12:02:24.243Z,101303.25
2022-08-19T12:04:50.667Z,101302.56
2022-08-19T12:07:17.084Z,101308.25
2022-08-19T12:09:43.681Z,101312.50
2022-08-19T12:12:12.587Z,101310.41
2022-08-19T12:14:39.278Z,101298.78
2022-08-19T12:17:08.312Z,101304.28
2022-08-19T12:19:37.034Z,101301.72
2022-08-19T12:22:04.257Z,101305.13
2022-08-19T12:24:33.644Z,101304.28
2022-08-19T12:27:03.186Z,101302.56
2022-08-19T12:29:30.627Z,101303.44
2022-08-19T12:32:03.840Z,101304.28
2022-08-19T12:34:31.078Z,101318.66
2022-08-19T12:36:58.412Z,101306.81
2022-08-19T12:39:25.449Z,101305.78
2022-08-19T12:41:54.942Z,101307.50
2022-08-19T12:44:28.873Z,101295.00
2022-08-19T12:46:58.616Z,101303.03
2022-08-19T12:49:53.760Z,101298.44
2022-08-19T12:52:16.155Z,101289.13
2022-08-19T12:54:46.568Z,101285.72
2022-08-19T12:57:13.274Z,101290.19
2022-08-19T12:59:40.762Z,101287.44
2022-08-19T13:02:10.236Z,101283.66
2022-08-19T13:04:38.803Z,101270.97
2022-08-19T13:07:05.130Z,101270.97
2022-08-19T13:09:31.526Z,101276.47
2022-08-19T13:11:57.895Z,101269.25
2022-08-19T13:14:24.250Z,101270.31
2022-08-19T13:16:53.391Z,101270.09
2022-08-19T13:19:21.948Z,101271.63
2022-08-19T13:21:50.340Z,101269.72
2022-08-19T13:24:16.969Z,101270.56
2022-08-19T13:26:44.259Z,101266.13
2022-08-19T13:29:29.491Z,101269.72
2022-08-19T13:32:18.605Z,101262.34
2022-08-19T13:34:47.525Z,101263.41
2022-08-19T13:37:13.929Z,101256.38
2022-08-19T13:39:43.811Z,101252.78
2022-08-19T13:42:11.542Z,101260.84
2022-08-19T13:44:37.995Z,101248.63
2022-08-19T13:47:07.724Z,101243.13
2022-08-19T13:49:36.782Z,101244.84
2022-08-19T13:52:04.494Z,101258.38
2022-08-19T13:54:30.995Z,101245.03
2022-08-19T13:56:57.409Z,101246.56
2022-08-19T13:59:23.812Z,101233.69
2022-08-19T14:01:50.921Z,101238.16
2022-08-19T14:04:17.404Z,101229.72
2022-08-19T14:06:43.782Z,101236.25
2022-08-19T14:09:10.242Z,101248.25
2022-08-19T14:11:36.603Z,101240.69
2022-08-19T14:14:02.971Z,101239.00
2022-08-19T14:16:31.266Z,101241.91
2022-08-19T14:18:57.630Z,101249.50
2022-08-19T14:21:25.990Z,101236.78
2022-08-19T14:23:52.720Z,101246.94
2022-08-19T14:26:20.037Z,101245.22
2022-08-19T14:28:46.791Z,101248.63
2022-08-19T14:31:17.550Z,101251.38
2022-08-19T14:33:43.953Z,101240.38
2022-08-19T14:36:10.397Z,101243.13
2022-08-19T14:38:37.468Z,101235.78
2022-08-19T14:41:17.640Z,101238.53
2022-08-19T14:43:47.235Z,101238.31
2022-08-19T14:46:17.973Z,101237.63
2022-08-19T14:48:44.459Z,101244.84
2022-08-19T14:51:10.976Z,101240.38
2022-08-19T14:53:37.715Z,101233.03
2022-08-19T14:56:08.652Z,101234.91
2022-08-19T14:58:39.165Z,101230.09
2022-08-19T15:01:05.934Z,101239.00
2022-08-19T15:03:33.000Z,101241.53
2022-08-19T15:06:01.463Z,101239.00
2022-08-19T15:08:28.533Z,101238.63
2022-08-19T15:10:55.445Z,101246.19
2022-08-19T15:13:22.233Z,101235.88
2022-08-19T15:15:48.793Z,101232.06
2022-08-19T15:18:15.616Z,101244.47
2022-08-19T15:20:42.223Z,101246.84
2022-08-19T15:23:08.641Z,101244.94
2022-08-19T15:25:35.334Z,101242.38
2022-08-19T15:28:01.758Z,101251.47
2022-08-19T15:30:29.071Z,101248.91
2022-08-19T15:32:56.886Z,101244.84
2022-08-19T15:35:23.630Z,101248.63
2022-08-19T15:37:51.053Z,101253.72
2022-08-19T15:40:18.022Z,101261.97
2022-08-19T15:42:44.633Z,101266.44
2022-08-19T15:45:12.487Z,101259.22
2022-08-19T15:47:39.312Z,101271.47
2022-08-19T15:50:10.761Z,101263.41
2022-08-19T15:52:48.351Z,101271.47
2022-08-19T15:55:33.751Z,101265.97
2022-08-19T15:58:28.211Z,101268.50
2022-08-19T16:01:23.584Z,101271.25
2022-08-19T16:04:14.097Z,101275.69
2022-08-19T16:06:45.959Z,101272.31
2022-08-19T16:09:13.086Z,101281.19
2022-08-19T16:11:39.881Z,101284.59
2022-08-19T16:14:11.794Z,101279.31
2022-08-19T16:16:38.354Z,101273.81
2022-08-19T16:19:10.275Z,101280.16
2022-08-19T16:21:41.862Z,101280.16
2022-08-19T16:24:10.182Z,101285.66
2022-08-19T16:26:43.498Z,101282.91
2022-08-19T16:29:12.175Z,101272.94
2022-08-19T16:31:43.876Z,101280.16
2022-08-19T16:34:13.773Z,101279.31
2022-08-19T16:36:46.388Z,101282.91
2022-08-19T16:39:19.507Z,101296.63
2022-08-19T16:41:49.578Z,101293.88
2022-08-19T16:47:36.416Z,101296.16
2022-08-19T16:54:02.656Z,101298.03
2022-08-19T17:03:20.275Z,101303.59
2022-08-19T17:06:15.811Z,101292.47
2022-08-19T17:09:27.563Z,101289.50
2022-08-19T17:37:38.328Z,101276.47
2022-08-19T17:40:14.714Z,101278.16
2022-08-19T17:42:46.201Z,101281.06
2022-08-19T17:45:14.180Z,101290.19
2022-08-19T17:47:41.261Z,101283.66
2022-08-19T17:50:09.550Z,101285.34
2022-08-19T17:52:37.346Z,101294.25
2022-08-19T17:55:04.284Z,101297.00
2022-08-19T17:57:30.749Z,101293.41
2022-08-19T17:59:58.545Z,101295.97
2022-08-19T18:02:25.974Z,101299.53
2022-08-19T18:04:52.344Z,101299.75
2022-08-19T18:07:21.567Z,101307.31
2022-08-19T18:09:51.768Z,101303.50
2022-08-19T18:12:24.557Z,101309.00
2022-08-19T18:14:51.034Z,101304.38
2022-08-19T18:17:19.146Z,101304.56
2022-08-19T18:19:47.160Z,101301.81
2022-08-19T18:22:22.511Z,101300.75
2022-08-19T18:24:49.110Z,101302.88
2022-08-19T18:27:15.528Z,101300.97
2022-08-19T18:29:41.933Z,101292.53
2022-08-19T18:32:12.804Z,101291.69
2022-08-19T18:34:39.834Z,101293.41
2022-08-19T18:37:06.301Z,101298.91
2022-08-19T18:39:51.451Z,101302.28
2022-08-19T18:42:36.601Z,101297.66
2022-08-19T18:45:22.965Z,101303.13
2022-08-19T18:48:07.941Z,101303.13
2022-08-19T18:50:53.531Z,101316.38
2022-08-19T18:53:19.947Z,101310.06
2022-08-19T18:55:49.433Z,101316.22
2022-08-19T18:58:15.835Z,101314.13
2022-08-19T19:00:43.891Z,101317.22
2022-08-19T19:03:11.591Z,101312.78
2022-08-19T19:05:42.309Z,101314.88
2022-08-19T19:08:09.156Z,101322.25
2022-08-19T19:10:36.186Z,101322.44
2022-08-19T19:13:02.617Z,101323.50
2022-08-19T19:15:29.441Z,101325.75
2022-08-19T19:17:59.214Z,101323.16
2022-08-19T19:20:35.265Z,101331.59
2022-08-19T19:23:03.252Z,101328.34
2022-08-19T19:25:50.015Z,101335.19
2022-08-19T19:28:16.303Z,101338.28
2022-08-19T19:30:42.831Z,101348.91
2022-08-19T19:33:09.205Z,101349.94
2022-08-19T19:35:35.636Z,101352.38
2022-08-19T19:38:02.001Z,101343.66
2022-08-19T19:40:28.625Z,101352.06
2022-08-19T19:42:55.607Z,101351.69
2022-08-19T19:45:23.274Z,101353.06
2022-08-19T19:47:50.051Z,101359.06
2022-08-19T19:50:17.304Z,101358.44
2022-08-19T19:52:45.635Z,101365.63
2022-08-19T19:55:17.985Z,101364.09
2022-08-19T19:57:45.516Z,101361.34
2022-08-19T20:00:15.044Z,101367.69
2022-08-19T20:02:46.667Z,101368.53
2022-08-19T20:05:16.169Z,101371.94
2022-08-19T20:08:01.391Z,101374.91
2022-08-19T20:10:27.916Z,101383.28
2022-08-19T20:12:54.858Z,101383.66
2022-08-19T20:15:22.093Z,101379.91
2022-08-19T20:17:48.480Z,101385.75
2022-08-19T20:20:16.259Z,101376.47
2022-08-19T20:22:43.650Z,101386.59
2022-08-19T20:25:11.417Z,101381.09
2022-08-19T20:27:39.883Z,101391.41
2022-08-19T20:30:08.016Z,101381.28
2022-08-19T20:32:42.588Z,101385.25
2022-08-19T20:35:16.714Z,101381.84
2022-08-19T20:37:43.094Z,101381.84
2022-08-19T20:40:10.108Z,101398.78
2022-08-19T20:42:40.204Z,101385.06
2022-08-19T20:45:21.556Z,101392.44
2022-08-19T20:48:02.475Z,101395.34
2022-08-19T20:50:30.131Z,101397.09
2022-08-19T20:52:57.079Z,101401.53
2022-08-19T20:55:23.426Z,101399.81
2022-08-19T20:57:49.817Z,101397.09
2022-08-19T21:00:16.294Z,101403.41
2022-08-19T21:02:42.692Z,101402.56
2022-08-19T21:05:09.062Z,101398.97
2022-08-19T21:07:38.947Z,101403.41
2022-08-19T21:10:06.772Z,101393.66
2022-08-19T21:12:33.191Z,101393.66
2022-08-19T21:14:59.617Z,101391.97
2022-08-19T21:17:25.990Z,101393.84
2022-08-19T21:19:52.378Z,101386.84
2022-08-19T21:22:18.725Z,101391.47
2022-08-19T21:24:45.135Z,101388.53
2022-08-19T21:27:11.584Z,101393.16
2022-08-19T21:29:40.081Z,101391.28
2022-08-19T21:32:06.847Z,101387.50
2022-08-19T21:34:33.225Z,101385.63
2022-08-19T21:36:59.614Z,101385.63
2022-08-19T21:39:25.999Z,101393.84
2022-08-19T21:41:52.388Z,101388.53
2022-08-19T21:44:18.787Z,101393.16
2022-08-19T21:46:45.347Z,101393.16
2022-08-19T21:49:16.967Z,101387.69
2022-08-19T21:51:43.303Z,101392.31
2022-08-19T21:54:14.099Z,101387.88
2022-08-19T21:56:41.163Z,101390.44
2022-08-19T21:59:07.737Z,101390.63
2022-08-19T22:01:34.123Z,101389.75
2022-08-19T22:04:00.464Z,101401.59
2022-08-19T22:06:26.838Z,101399.88
2022-08-19T22:08:56.260Z,101403.66
2022-08-19T22:11:23.307Z,101398.16
2022-08-19T22:13:53.675Z,101401.97
2022-08-19T22:16:20.839Z,101410.84
2022-08-19T22:18:47.659Z,101408.09
2022-08-19T22:21:14.471Z,101407.44
2022-08-19T22:23:41.706Z,101401.97
2022-08-19T22:26:08.432Z,101405.72
2022-08-19T22:28:34.773Z,101405.53
2022-08-19T22:31:02.476Z,101404.88
2022-08-19T22:33:30.049Z,101401.97
2022-08-19T22:35:56.446Z,101401.09
2022-08-19T22:38:22.912Z,101407.44
2022-08-19T22:40:50.671Z,101403.66
2022-08-19T22:43:25.413Z,101408.28
2022-08-19T22:45:53.087Z,101411.69
2022-08-19T22:48:20.207Z,101409.13
2022-08-19T22:51:07.389Z,101403.84
2022-08-19T22:53:34.749Z,101407.81
2022-08-19T22:56:01.279Z,101409.50
2022-08-19T22:58:27.841Z,101396.84
2022-08-19T23:00:54.776Z,101404.22
2022-08-19T23:03:21.161Z,101407.81
2022-08-19T23:05:47.604Z,101406.06
2022-08-19T23:08:17.401Z,101407.97
2022-08-19T23:10:44.007Z,101402.69
2022-08-19T23:13:10.532Z,101408.16
2022-08-19T23:15:36.889Z,101399.94
2022-08-19T23:18:04.322Z,101404.38
2022-08-19T23:20:32.879Z,101405.91
2022-08-19T23:23:01.362Z,101404.22
2022-08-19T23:25:28.788Z,101407.13
2022-08-19T23:28:13.878Z,101397.19
2022-08-19T23:30:43.539Z,101410.22
2022-08-19T23:33:21.398Z,101406.47
2022-08-19T23:35:48.182Z,101392.75
2022-08-19T23:38:14.547Z,101393.59
2022-08-19T23:40:40.903Z,101395.50
2022-08-19T23:43:07.998Z,101396.34
2022-08-19T23:45:38.119Z,101397.19
2022-08-19T23:48:05.762Z,101406.25
2022-08-19T23:50:32.520Z,101406.47
2022-08-19T23:52:59.404Z,101409.84
2022-08-19T23:55:27.896Z,101404.38
2022-08-19T23:57:54.412Z,101395.50
